createdAt,value
2023-06-15T00:00:08.299Z,12.40
2023-06-15T00:02:36.691Z,12.44
2023-06-15T00:05:04.878Z,12.37
2023-06-15T00:07:32.802Z,12.41
2023-06-15T00:10:00.893Z,12.37
2023-06-15T00:12:30.214Z,12.33
2023-06-15T00:14:58.583Z,12.28
2023-06-15T00:17:26.476Z,12.27
2023-06-15T00:19:54.805Z,12.24
2023-06-15T00:22:22.741Z,12.18
2023-06-15T00:24:50.623Z,12.13
2023-06-15T00:27:18.519Z,12.12
2023-06-15T00:29:47.843Z,12.15
2023-06-15T00:32:15.900Z,12.12
2023-06-15T00:34:44.012Z,12.09
2023-06-15T00:37:11.831Z,12.04
2023-06-15T00:39:39.787Z,12.03
2023-06-15T00:42:08.101Z,12.02
2023-06-15T00:44:36.123Z,12.08
2023-06-15T00:47:06.098Z,12.05
2023-06-15T00:49:34.113Z,12.05
2023-06-15T00:52:02.500Z,11.95
2023-06-15T00:54:31.309Z,11.93
2023-06-15T00:56:59.652Z,11.95
2023-06-15T00:59:29.697Z,11.99
2023-06-15T01:01:57.627Z,11.95
2023-06-15T01:04:27.030Z,11.92
2023-06-15T01:06:58.214Z,11.91
2023-06-15T01:09:26.862Z,11.92
2023-06-15T01:11:56.734Z,11.89
2023-06-15T01:14:25.955Z,11.81
2023-06-15T01:16:55.010Z,11.82
2023-06-15T01:19:35.653Z,11.78
2023-06-15T01:22:10.120Z,11.74
2023-06-15T01:24:38.845Z,11.67
2023-06-15T01:27:10.752Z,11.58
2023-06-15T01:29:42.529Z,11.54
2023-06-15T01:32:11.315Z,11.53
2023-06-15T01:34:39.303Z,11.51
2023-06-15T01:37:07.578Z,11.51
2023-06-15T01:39:35.454Z,11.51
2023-06-15T01:42:03.671Z,11.46
2023-06-15T01:44:33.101Z,11.46
2023-06-15T01:47:01.008Z,11.48
2023-06-15T01:49:29.376Z,11.45
2023-06-15T01:51:57.333Z,11.43
2023-06-15T01:54:25.200Z,11.39
2023-06-15T01:56:53.073Z,11.39
2023-06-15T01:59:20.966Z,11.31
2023-06-15T02:01:50.269Z,11.30
2023-06-15T02:04:18.292Z,11.21
2023-06-15T02:06:46.180Z,11.18
2023-06-15T02:09:14.073Z,11.20
2023-06-15T02:11:43.234Z,11.20
2023-06-15T02:14:11.372Z,11.20
2023-06-15T02:16:39.498Z,11.22
2023-06-15T02:19:08.712Z,11.20
2023-06-15T02:21:36.565Z,11.20
2023-06-15T02:24:04.574Z,11.23
2023-06-15T02:26:32.525Z,11.16
2023-06-15T02:29:00.376Z,11.10
2023-06-15T02:31:28.668Z,11.04
2023-06-15T02:33:56.618Z,11.00
2023-06-15T02:36:25.901Z,10.98
2023-06-15T02:38:53.798Z,10.96
2023-06-15T02:41:21.639Z,10.99
2023-06-15T02:43:49.917Z,10.98
2023-06-15T02:46:17.753Z,10.98
2023-06-15T02:48:46.260Z,10.99
2023-06-15T02:51:14.251Z,11.07
2023-06-15T02:53:45.017Z,11.03
2023-06-15T02:56:12.921Z,11.01
2023-06-15T02:58:43.445Z,11.07
2023-06-15T03:01:12.528Z,11.08
2023-06-15T03:03:41.849Z,11.27
2023-06-15T03:06:10.831Z,11.44
2023-06-15T03:08:39.349Z,11.52
2023-06-15T03:11:08.968Z,11.63
2023-06-15T03:13:37.197Z,11.70
2023-06-15T03:16:08.435Z,11.90
2023-06-15T03:18:36.310Z,12.00
2023-06-15T03:21:09.014Z,12.10
2023-06-15T03:23:38.351Z,12.27
2023-06-15T03:26:07.779Z,12.33
2023-06-15T03:28:41.212Z,12.46
2023-06-15T03:31:10.260Z,12.67
2023-06-15T03:33:38.647Z,12.99
2023-06-15T03:36:06.572Z,13.28
2023-06-15T03:38:34.471Z,14.32
2023-06-15T03:41:02.288Z,16.19
2023-06-15T03:43:30.212Z,17.32
2023-06-15T03:45:59.443Z,18.28
2023-06-15T03:48:27.298Z,18.87
2023-06-15T03:50:55.176Z,18.95
2023-06-15T03:53:23.303Z,19.73
2023-06-15T03:55:51.200Z,20.09
2023-06-15T03:58:19.016Z,19.97
2023-06-15T04:00:46.886Z,19.82
2023-06-15T04:03:16.164Z,20.48
2023-06-15T04:05:44.571Z,20.40
2023-06-15T04:08:12.511Z,21.36
2023-06-15T04:10:40.408Z,22.46
2023-06-15T04:13:08.283Z,22.60
2023-06-15T04:15:36.172Z,22.63
2023-06-15T04:18:04.590Z,23.15
2023-06-15T04:20:34.154Z,22.73
2023-06-15T04:23:01.967Z,24.49
2023-06-15T04:25:30.284Z,26.02
2023-06-15T04:27:58.861Z,26.62
2023-06-15T04:30:26.874Z,25.84
2023-06-15T04:32:58.662Z,26.34
2023-06-15T04:35:30.279Z,25.15
2023-06-15T04:37:59.597Z,23.94
2023-06-15T04:40:27.667Z,24.18
2023-06-15T04:42:55.510Z,24.30
2023-06-15T04:45:23.406Z,23.87
2023-06-15T04:47:51.396Z,23.85
2023-06-15T04:50:20.296Z,23.27
2023-06-15T04:52:48.177Z,23.10
2023-06-15T04:55:17.684Z,24.26
2023-06-15T04:57:45.853Z,26.27
2023-06-15T05:00:14.859Z,27.83
2023-06-15T05:02:43.009Z,28.70
2023-06-15T05:05:11.179Z,27.95
2023-06-15T05:07:39.024Z,29.30
2023-06-15T05:10:08.659Z,30.22
2023-06-15T05:12:37.934Z,30.55
2023-06-15T05:15:06.196Z,31.02
2023-06-15T05:17:34.299Z,31.86
2023-06-15T05:20:02.647Z,32.16
2023-06-15T05:22:30.594Z,32.09
2023-06-15T05:24:58.565Z,33.10
2023-06-15T05:27:26.793Z,33.03
2023-06-15T05:29:56.262Z,31.92
2023-06-15T05:32:25.526Z,32.51
2023-06-15T05:34:56.056Z,31.24
2023-06-15T05:37:24.720Z,30.47
2023-06-15T05:39:52.510Z,29.94
2023-06-15T05:42:20.429Z,30.99
2023-06-15T05:44:49.023Z,30.81
2023-06-15T05:47:19.028Z,30.13
2023-06-15T05:49:46.873Z,28.42
2023-06-15T05:52:16.595Z,28.60
2023-06-15T05:54:45.460Z,29.00
2023-06-15T05:57:13.593Z,28.16
2023-06-15T05:59:41.485Z,28.01
2023-06-15T06:02:25.090Z,27.53
2023-06-15T06:04:54.846Z,26.30
2023-06-15T06:07:23.435Z,26.39
2023-06-15T06:09:51.485Z,25.56
2023-06-15T06:12:19.520Z,25.54
2023-06-15T06:14:47.949Z,25.17
2023-06-15T06:17:37.282Z,25.20
2023-06-15T06:20:05.840Z,25.58
2023-06-15T06:22:33.984Z,26.12
2023-06-15T06:25:02.059Z,25.76
2023-06-15T06:27:31.397Z,26.41
2023-06-15T06:30:01.053Z,27.14
2023-06-15T06:32:28.949Z,27.42
2023-06-15T06:34:57.179Z,27.97
2023-06-15T06:37:27.359Z,27.77
2023-06-15T06:39:58.438Z,27.92
2023-06-15T06:42:27.307Z,28.20
2023-06-15T06:44:55.371Z,28.12
2023-06-15T06:47:24.329Z,28.28
2023-06-15T06:49:53.101Z,27.90
2023-06-15T06:52:21.003Z,27.89
2023-06-15T06:55:06.548Z,28.24
2023-06-15T06:57:34.471Z,27.99
2023-06-15T07:00:02.259Z,28.00
2023-06-15T07:02:30.215Z,27.46
2023-06-15T07:04:58.165Z,27.45
2023-06-15T07:07:26.125Z,28.04
2023-06-15T07:09:56.482Z,27.50
2023-06-15T07:12:24.382Z,26.88
2023-06-15T07:14:52.424Z,27.12
2023-06-15T07:17:20.313Z,26.77
2023-06-15T07:19:48.191Z,26.88
2023-06-15T07:22:16.108Z,26.70
2023-06-15T07:24:45.082Z,26.80
2023-06-15T07:27:14.492Z,26.54
2023-06-15T07:29:43.061Z,26.52
2023-06-15T07:32:11.101Z,26.95
2023-06-15T07:34:39.092Z,26.54
2023-06-15T07:37:07.546Z,26.27
2023-06-15T07:39:36.726Z,26.34
2023-06-15T07:42:04.631Z,26.20
2023-06-15T07:44:34.283Z,26.09
2023-06-15T07:47:02.468Z,26.30
2023-06-15T07:49:45.076Z,26.12
2023-06-15T07:52:14.563Z,26.48
2023-06-15T07:54:43.502Z,26.29
2023-06-15T07:57:12.607Z,26.34
2023-06-15T07:59:42.164Z,26.43
2023-06-15T08:02:10.637Z,26.45
2023-06-15T08:04:38.812Z,26.88
2023-06-15T08:07:08.744Z,26.41
2023-06-15T08:09:36.767Z,26.50
2023-06-15T08:12:07.225Z,26.28
2023-06-15T08:14:37.639Z,26.27
2023-06-15T08:17:12.336Z,26.11
2023-06-15T08:19:44.785Z,26.10
2023-06-15T08:22:13.921Z,26.00
2023-06-15T08:24:42.549Z,26.18
2023-06-15T08:33:09.570Z,26.18
2023-06-15T08:35:51.775Z,26.58
2023-06-15T08:38:21.166Z,26.74
2023-06-15T08:40:50.152Z,26.66
2023-06-15T08:43:37.105Z,26.53
2023-06-15T08:49:08.851Z,26.45
2023-06-15T08:51:40.599Z,26.04
2023-06-15T08:54:13.534Z,25.94
2023-06-15T08:56:46.323Z,25.97
2023-06-15T08:59:15.643Z,25.94
2023-06-15T09:01:47.948Z,26.01
2023-06-15T09:04:37.185Z,26.09
2023-06-15T09:07:07.105Z,25.89
2023-06-15T09:12:25.416Z,26.09
2023-06-15T09:14:53.852Z,25.40
2023-06-15T09:23:20.179Z,25.18
2023-06-15T09:25:53.124Z,25.27
2023-06-15T09:28:23.278Z,25.85
2023-06-15T09:30:57.915Z,26.14
2023-06-15T09:33:27.352Z,26.30
2023-06-15T09:36:04.030Z,26.40
2023-06-15T09:38:40.627Z,26.74
2023-06-15T09:41:11.184Z,26.18
2023-06-15T09:43:41.828Z,25.09
2023-06-15T09:46:12.949Z,25.03
2023-06-15T09:48:41.272Z,24.86
2023-06-15T09:51:11.213Z,24.13
2023-06-15T09:53:43.401Z,23.90
2023-06-15T09:56:29.024Z,24.04
2023-06-15T09:59:00.789Z,24.38
2023-06-15T10:01:33.121Z,25.30
2023-06-15T10:04:01.517Z,26.09
2023-06-15T10:06:32.229Z,26.51
2023-06-15T10:09:06.275Z,26.85
2023-06-15T10:11:38.710Z,27.08
2023-06-15T10:17:08.294Z,26.76
2023-06-15T10:19:42.524Z,26.49
2023-06-15T10:22:17.760Z,25.68
2023-06-15T10:24:48.241Z,25.49
2023-06-15T10:27:17.696Z,25.21
2023-06-15T10:29:50.763Z,25.20
2023-06-15T10:32:23.455Z,25.11
2023-06-15T10:34:56.333Z,25.16
2023-06-15T10:37:29.220Z,25.36
2023-06-15T10:40:02.020Z,25.58
2023-06-15T10:42:31.147Z,25.48
2023-06-15T10:45:01.632Z,25.73
2023-06-15T10:47:29.894Z,25.88
2023-06-15T10:50:00.190Z,25.57
2023-06-15T10:52:35.521Z,26.08
2023-06-15T10:55:11.861Z,26.67
2023-06-15T10:57:40.848Z,26.38
2023-06-15T11:00:12.046Z,26.53
2023-06-15T11:02:50.364Z,27.26
2023-06-15T11:05:21.009Z,27.32
2023-06-15T11:07:50.660Z,26.80
2023-06-15T11:10:23.108Z,26.52
2023-06-15T11:12:54.103Z,26.10
2023-06-15T11:15:22.204Z,26.13
2023-06-15T11:17:58.098Z,26.01
2023-06-15T11:20:56.057Z,26.26
2023-06-15T11:23:25.881Z,26.26
2023-06-15T11:25:55.707Z,26.08
2023-06-15T11:30:56.739Z,26.08
2023-06-15T11:33:29.624Z,25.86
2023-06-15T11:36:00.046Z,26.09
2023-06-15T11:38:31.072Z,26.73
2023-06-15T11:41:04.961Z,26.65
2023-06-15T11:43:35.614Z,27.01
2023-06-15T11:46:04.106Z,27.17
2023-06-15T11:48:33.184Z,27.48
2023-06-15T11:51:03.127Z,27.41
2023-06-15T11:53:32.250Z,27.40
2023-06-15T11:56:00.639Z,26.83
2023-06-15T11:58:29.915Z,26.49
2023-06-15T12:00:59.238Z,26.27
2023-06-15T12:03:27.702Z,25.68
2023-06-15T12:06:01.116Z,25.36
2023-06-15T12:08:29.454Z,25.41
2023-06-15T12:10:58.872Z,25.41
2023-06-15T12:13:27.384Z,25.32
2023-06-15T12:15:56.736Z,25.51
2023-06-15T12:18:24.676Z,25.38
2023-06-15T12:20:52.770Z,25.61
2023-06-15T12:23:28.167Z,25.51
2023-06-15T12:25:58.153Z,25.65
2023-06-15T12:28:27.363Z,26.10
2023-06-15T12:31:04.103Z,26.15
2023-06-15T12:33:32.887Z,26.05
2023-06-15T12:36:01.655Z,25.90
2023-06-15T12:38:31.259Z,26.10
2023-06-15T12:40:59.335Z,25.93
2023-06-15T12:43:28.120Z,26.61
2023-06-15T12:45:56.601Z,26.57
2023-06-15T12:48:40.582Z,26.93
2023-06-15T12:51:23.413Z,25.99
2023-06-15T12:53:53.176Z,25.93
2023-06-15T12:56:21.251Z,25.61
2023-06-15T12:58:49.201Z,25.72
2023-06-15T13:01:17.674Z,26.02
2023-06-15T13:03:47.105Z,26.44
2023-06-15T13:06:15.693Z,26.73
2023-06-15T13:08:44.279Z,26.90
2023-06-15T13:11:15.783Z,26.54
2023-06-15T13:13:43.776Z,26.44
2023-06-15T13:16:11.706Z,26.63
2023-06-15T13:18:39.658Z,26.78
2023-06-15T13:21:07.940Z,27.09
2023-06-15T13:23:36.165Z,27.46
2023-06-15T13:26:04.254Z,27.58
2023-06-15T13:28:33.692Z,27.44
2023-06-15T13:31:03.056Z,26.81
2023-06-15T13:33:30.976Z,26.20
2023-06-15T13:35:59.016Z,25.88
2023-06-15T13:38:27.263Z,26.03
2023-06-15T13:40:55.121Z,26.11
2023-06-15T13:43:23.278Z,26.37
2023-06-15T13:46:00.003Z,26.04
2023-06-15T13:48:28.043Z,26.32
2023-06-15T13:50:55.966Z,25.57
2023-06-15T13:53:23.844Z,25.54
2023-06-15T13:55:51.827Z,25.36
2023-06-15T13:58:19.691Z,25.66
2023-06-15T14:00:47.561Z,25.45
2023-06-15T14:03:17.491Z,25.37
2023-06-15T14:05:45.814Z,25.25
2023-06-15T14:08:13.901Z,24.91
2023-06-15T14:10:42.182Z,24.87
2023-06-15T14:13:10.821Z,24.60
2023-06-15T14:15:39.122Z,24.78
2023-06-15T14:18:07.078Z,24.82
2023-06-15T14:20:36.306Z,24.85
2023-06-15T14:23:04.283Z,24.73
2023-06-15T14:25:32.336Z,24.73
2023-06-15T14:28:00.172Z,24.79
2023-06-15T14:30:28.049Z,24.74
2023-06-15T14:32:56.030Z,24.45
2023-06-15T14:35:24.067Z,24.43
2023-06-15T14:37:54.159Z,24.38
2023-06-15T14:40:22.430Z,24.29
2023-06-15T14:42:53.025Z,24.23
2023-06-15T14:45:30.193Z,24.15
2023-06-15T14:48:05.431Z,24.09
2023-06-15T14:50:45.399Z,24.14
2023-06-15T14:53:17.894Z,23.97
2023-06-15T14:55:46.431Z,24.07
2023-06-15T14:58:19.503Z,24.09
2023-06-15T15:00:47.520Z,23.96
2023-06-15T15:03:15.959Z,24.42
2023-06-15T15:05:44.420Z,24.81
2023-06-15T15:08:14.439Z,24.61
2023-06-15T15:10:59.700Z,24.34
2023-06-15T15:13:30.032Z,24.38
2023-06-15T15:15:58.144Z,24.12
2023-06-15T15:18:26.036Z,24.10
2023-06-15T15:20:56.358Z,23.91
2023-06-15T15:23:24.699Z,23.96
2023-06-15T15:25:54.244Z,23.71
2023-06-15T15:28:22.483Z,23.66
2023-06-15T15:30:58.579Z,23.56
2023-06-15T15:33:27.368Z,23.61
2023-06-15T15:35:55.321Z,23.48
2023-06-15T15:38:37.261Z,23.55
2023-06-15T15:41:05.265Z,23.60
2023-06-15T15:43:33.450Z,23.64
2023-06-15T15:46:03.011Z,23.64
2023-06-15T15:48:31.168Z,23.65
2023-06-15T15:51:00.023Z,23.73
2023-06-15T15:53:28.006Z,23.90
2023-06-15T15:55:55.940Z,23.88
2023-06-15T15:58:23.794Z,23.64
2023-06-15T16:00:52.281Z,23.45
2023-06-15T16:03:21.915Z,23.32
2023-06-15T16:05:49.915Z,23.22
2023-06-15T16:08:17.910Z,23.33
2023-06-15T16:10:47.093Z,23.14
2023-06-15T16:13:16.058Z,23.09
2023-06-15T16:15:46.703Z,23.01
2023-06-15T16:18:17.217Z,22.90
2023-06-15T16:20:51.260Z,22.85
2023-06-15T16:23:34.234Z,22.87
2023-06-15T16:26:05.060Z,22.84
2023-06-15T16:28:49.072Z,22.88
2023-06-15T16:31:17.605Z,22.79
2023-06-15T16:33:46.417Z,22.77
2023-06-15T16:36:16.534Z,22.79
2023-06-15T16:38:44.884Z,22.71
2023-06-15T16:41:14.066Z,22.70
2023-06-15T16:43:44.168Z,22.68
2023-06-15T16:46:14.785Z,22.71
2023-06-15T16:51:11.277Z,22.67
2023-06-15T16:53:43.024Z,22.62
2023-06-15T16:56:12.240Z,22.54
2023-06-15T16:58:41.266Z,22.56
2023-06-15T17:01:09.284Z,22.58
2023-06-15T17:03:39.927Z,22.53
2023-06-15T17:06:08.785Z,22.42
2023-06-15T17:08:37.155Z,22.39
2023-06-15T17:11:13.731Z,22.30
2023-06-15T17:13:42.963Z,22.23
2023-06-15T17:16:11.700Z,22.13
2023-06-15T17:21:24.506Z,22.09
2023-06-15T17:23:52.596Z,21.99
2023-06-15T17:26:22.718Z,21.92
2023-06-15T17:28:52.400Z,21.86
2023-06-15T17:31:20.837Z,21.81
2023-06-15T17:34:01.499Z,21.71
2023-06-15T17:36:38.129Z,21.63
2023-06-15T17:39:08.996Z,21.58
2023-06-15T17:41:38.471Z,21.48
2023-06-15T17:44:06.762Z,21.41
2023-06-15T17:46:35.196Z,21.27
2023-06-15T17:49:03.438Z,21.24
2023-06-15T17:51:31.752Z,21.16
2023-06-15T17:53:59.842Z,21.13
2023-06-15T17:56:28.083Z,21.07
2023-06-15T17:58:57.849Z,21.00
2023-06-15T18:01:26.356Z,20.93
2023-06-15T18:03:55.077Z,20.94
2023-06-15T18:06:23.617Z,20.90
2023-06-15T18:08:51.925Z,20.86
2023-06-15T18:11:20.076Z,20.83
2023-06-15T18:13:48.073Z,20.80
2023-06-15T18:16:17.559Z,20.77
2023-06-15T18:18:45.669Z,20.77
2023-06-15T18:21:13.885Z,20.71
2023-06-15T18:23:41.725Z,20.64
2023-06-15T18:26:10.311Z,20.65
2023-06-15T18:28:38.997Z,20.55
2023-06-15T18:31:06.971Z,20.52
2023-06-15T18:33:36.478Z,20.50
2023-06-15T18:36:04.530Z,20.48
2023-06-15T18:38:34.566Z,20.45
2023-06-15T18:41:03.687Z,20.39
2023-06-15T18:43:31.894Z,20.35
2023-06-15T18:45:59.817Z,20.26
2023-06-15T18:48:27.850Z,20.25
2023-06-15T18:50:57.763Z,20.17
2023-06-15T18:53:28.184Z,20.12
2023-06-15T18:55:56.588Z,20.04
2023-06-15T18:58:24.636Z,20.00
2023-06-15T19:00:52.726Z,19.95
2023-06-15T19:03:21.070Z,19.93
2023-06-15T19:05:51.349Z,19.89
2023-06-15T19:08:21.630Z,19.85
2023-06-15T19:10:50.631Z,19.79
2023-06-15T19:13:24.223Z,19.74
2023-06-15T19:15:52.888Z,19.73
2023-06-15T19:18:21.455Z,19.65
2023-06-15T19:20:51.961Z,19.63
2023-06-15T19:23:21.744Z,19.59
2023-06-15T19:25:51.513Z,19.58
2023-06-15T19:28:20.692Z,19.51
2023-06-15T19:30:49.912Z,19.49
2023-06-15T19:33:18.017Z,19.40
2023-06-15T19:35:46.419Z,19.40
2023-06-15T19:38:14.344Z,19.33
2023-06-15T19:40:46.702Z,19.32
2023-06-15T19:43:15.377Z,19.35
2023-06-15T19:45:44.225Z,19.34
2023-06-15T19:48:12.090Z,19.35
2023-06-15T19:50:40.360Z,19.39
2023-06-15T19:53:08.540Z,19.39
2023-06-15T19:55:41.720Z,19.40
2023-06-15T19:58:11.265Z,19.44
2023-06-15T20:00:39.153Z,19.44
2023-06-15T20:03:07.516Z,19.41
2023-06-15T20:05:35.976Z,19.41
2023-06-15T20:08:06.022Z,19.45
2023-06-15T20:10:33.846Z,19.47
2023-06-15T20:13:02.664Z,19.49
2023-06-15T20:15:32.575Z,19.46
2023-06-15T20:18:01.927Z,19.46
2023-06-15T20:20:29.973Z,19.46
2023-06-15T20:22:57.860Z,19.47
2023-06-15T20:25:26.106Z,19.47
2023-06-15T20:27:53.968Z,19.42
2023-06-15T20:30:22.053Z,19.39
2023-06-15T20:32:51.330Z,19.39
2023-06-15T20:35:19.417Z,19.43
2023-06-15T20:37:47.318Z,19.43
2023-06-15T20:40:16.385Z,19.44
2023-06-15T20:42:45.730Z,19.42
2023-06-15T20:45:13.606Z,19.38
2023-06-15T20:47:41.717Z,19.38
2023-06-15T20:50:11.691Z,19.32
2023-06-15T20:52:42.096Z,19.22
2023-06-15T20:55:11.038Z,19.14
2023-06-15T20:57:39.061Z,18.94
2023-06-15T21:00:07.851Z,18.75
2023-06-15T21:02:38.132Z,18.57
2023-06-15T21:05:08.537Z,18.37
2023-06-15T21:07:38.080Z,18.14
2023-06-15T21:10:06.374Z,18.04
2023-06-15T21:12:34.337Z,17.89
2023-06-15T21:15:02.196Z,17.74
2023-06-15T21:17:30.125Z,17.67
2023-06-15T21:19:58.057Z,17.55
2023-06-15T21:22:26.015Z,17.43
2023-06-15T21:24:55.306Z,17.28
2023-06-15T21:27:23.134Z,17.23
2023-06-15T21:29:51.230Z,17.08
2023-06-15T21:32:21.812Z,16.98
2023-06-15T21:34:49.890Z,16.93
2023-06-15T21:37:18.493Z,16.85
2023-06-15T21:39:46.427Z,16.76
2023-06-15T21:42:15.966Z,16.66
2023-06-15T21:44:46.743Z,16.56
2023-06-15T21:47:14.703Z,16.45
2023-06-15T21:49:42.574Z,16.33
2023-06-15T21:52:11.575Z,16.23
2023-06-15T21:54:39.931Z,16.13
2023-06-15T21:57:08.029Z,16.08
2023-06-15T21:59:37.687Z,15.95
2023-06-15T22:02:05.932Z,15.95
2023-06-15T22:04:33.766Z,15.88
2023-06-15T22:07:01.807Z,15.85
2023-06-15T22:09:29.731Z,15.84
2023-06-15T22:11:57.746Z,15.88
2023-06-15T22:14:25.615Z,15.87
2023-06-15T22:16:56.900Z,15.85
2023-06-15T22:19:25.860Z,15.83
2023-06-15T22:21:54.868Z,15.80
2023-06-15T22:24:24.010Z,15.72
2023-06-15T22:26:52.130Z,15.63
2023-06-15T22:29:20.506Z,15.56
2023-06-15T22:31:49.216Z,15.45
2023-06-15T22:34:18.843Z,15.36
2023-06-15T22:36:46.766Z,15.29
2023-06-15T22:39:14.653Z,15.26
2023-06-15T22:41:43.667Z,15.26
2023-06-15T22:44:11.661Z,15.24
2023-06-15T22:46:39.977Z,15.23
2023-06-15T22:49:10.217Z,15.23
2023-06-15T22:51:40.977Z,15.26
2023-06-15T22:54:09.046Z,15.21
2023-06-15T22:56:37.498Z,15.17
2023-06-15T22:59:05.398Z,15.17
2023-06-15T23:01:33.242Z,15.16
2023-06-15T23:04:01.181Z,15.15
2023-06-15T23:06:30.564Z,15.14
2023-06-15T23:09:01.183Z,15.11
2023-06-15T23:11:29.034Z,15.11
2023-06-15T23:13:56.961Z,15.11
2023-06-15T23:16:24.946Z,15.08
2023-06-15T23:18:54.900Z,15.05
2023-06-15T23:21:23.610Z,15.07
2023-06-15T23:23:59.477Z,15.09
2023-06-15T23:26:30.966Z,15.05
2023-06-15T23:29:00.770Z,15.03
2023-06-15T23:31:28.808Z,15.02
2023-06-15T23:33:57.067Z,15.03
2023-06-15T23:36:24.981Z,14.98
2023-06-15T23:38:52.922Z,14.98
2023-06-15T23:41:23.165Z,14.97
2023-06-15T23:43:53.008Z,14.96
2023-06-15T23:46:21.068Z,14.95
2023-06-15T23:48:49.466Z,15.00
2023-06-15T23:51:18.084Z,14.99
2023-06-15T23:53:46.370Z,14.96
2023-06-15T23:56:14.302Z,14.97
2023-06-15T23:58:42.266Z,14.96
